sensor_id;sensor_type;location;lat;lon;timestamp;P1;durP1;ratioP1;P2;durP2;ratioP2
14754;SDS011;7469;50.906;6.952;2022-12-20T00:01:38;3.17;;;1.70;;
14754;SDS011;7469;50.906;6.952;2022-12-20T00:04:06;2.60;;;1.80;;
14754;SDS011;7469;50.906;6.952;2022-12-20T00:06:35;4.33;;;1.53;;
14754;SDS011;7469;50.906;6.952;2022-12-20T00:09:04;1.70;;;1.60;;
14754;SDS011;7469;50.906;6.952;2022-12-20T00:11:34;2.53;;;1.50;;
14754;SDS011;7469;50.906;6.952;2022-12-20T00:14:04;3.33;;;1.60;;
14754;SDS011;7469;50.906;6.952;2022-12-20T00:16:32;1.90;;;1.80;;
14754;SDS011;7469;50.906;6.952;2022-12-20T00:19:04;3.57;;;1.90;;
14754;SDS011;7469;50.906;6.952;2022-12-20T00:21:33;1.97;;;1.80;;
14754;SDS011;7469;50.906;6.952;2022-12-20T00:24:04;2.63;;;2.17;;
14754;SDS011;7469;50.906;6.952;2022-12-20T00:26:33;2.93;;;1.77;;
14754;SDS011;7469;50.906;6.952;2022-12-20T00:29:03;3.23;;;1.50;;
14754;SDS011;7469;50.906;6.952;2022-12-20T00:31:32;2.47;;;1.90;;
14754;SDS011;7469;50.906;6.952;2022-12-20T00:34:00;3.43;;;2.10;;
14754;SDS011;7469;50.906;6.952;2022-12-20T00:36:31;4.90;;;2.53;;
14754;SDS011;7469;50.906;6.952;2022-12-20T00:38:59;5.23;;;2.00;;
14754;SDS011;7469;50.906;6.952;2022-12-20T00:41:28;3.37;;;2.10;;
14754;SDS011;7469;50.906;6.952;2022-12-20T00:43:57;2.30;;;2.00;;
14754;SDS011;7469;50.906;6.952;2022-12-20T00:46:25;4.37;;;2.30;;
14754;SDS011;7469;50.906;6.952;2022-12-20T00:48:54;2.20;;;1.97;;
14754;SDS011;7469;50.906;6.952;2022-12-20T00:51:22;2.20;;;2.00;;
14754;SDS011;7469;50.906;6.952;2022-12-20T00:53:53;2.23;;;1.90;;
14754;SDS011;7469;50.906;6.952;2022-12-20T00:56:21;5.47;;;2.27;;
14754;SDS011;7469;50.906;6.952;2022-12-20T00:58:51;2.13;;;1.90;;
14754;SDS011;7469;50.906;6.952;2022-12-20T01:01:20;2.70;;;2.20;;
14754;SDS011;7469;50.906;6.952;2022-12-20T01:03:51;2.23;;;1.93;;
14754;SDS011;7469;50.906;6.952;2022-12-20T01:06:21;3.07;;;2.10;;
14754;SDS011;7469;50.906;6.952;2022-12-20T01:08:50;3.70;;;2.00;;
14754;SDS011;7469;50.906;6.952;2022-12-20T01:11:20;3.77;;;2.30;;
14754;SDS011;7469;50.906;6.952;2022-12-20T01:13:49;5.27;;;2.57;;
14754;SDS011;7469;50.906;6.952;2022-12-20T01:16:19;3.70;;;2.60;;
14754;SDS011;7469;50.906;6.952;2022-12-20T01:18:48;3.67;;;2.17;;
14754;SDS011;7469;50.906;6.952;2022-12-20T01:21:18;2.60;;;2.30;;
14754;SDS011;7469;50.906;6.952;2022-12-20T01:23:47;3.87;;;2.13;;
14754;SDS011;7469;50.906;6.952;2022-12-20T01:26:16;7.03;;;2.70;;
14754;SDS011;7469;50.906;6.952;2022-12-20T01:28:47;3.37;;;2.33;;
14754;SDS011;7469;50.906;6.952;2022-12-20T01:31:18;2.37;;;1.90;;
14754;SDS011;7469;50.906;6.952;2022-12-20T01:33:47;3.97;;;2.00;;
14754;SDS011;7469;50.906;6.952;2022-12-20T01:36:20;4.63;;;2.37;;
14754;SDS011;7469;50.906;6.952;2022-12-20T01:38:54;2.73;;;1.90;;
14754;SDS011;7469;50.906;6.952;2022-12-20T01:41:22;2.63;;;1.93;;
14754;SDS011;7469;50.906;6.952;2022-12-20T01:43:53;2.90;;;2.00;;
14754;SDS011;7469;50.906;6.952;2022-12-20T01:46:24;2.80;;;2.13;;
14754;SDS011;7469;50.906;6.952;2022-12-20T01:48:54;4.47;;;1.87;;
14754;SDS011;7469;50.906;6.952;2022-12-20T01:51:26;4.67;;;2.07;;
14754;SDS011;7469;50.906;6.952;2022-12-20T01:53:59;2.57;;;2.20;;
14754;SDS011;7469;50.906;6.952;2022-12-20T01:56:31;3.17;;;2.07;;
14754;SDS011;7469;50.906;6.952;2022-12-20T01:59:01;3.03;;;2.10;;
14754;SDS011;7469;50.906;6.952;2022-12-20T02:01:30;1.70;;;1.53;;
14754;SDS011;7469;50.906;6.952;2022-12-20T02:03:58;3.77;;;2.13;;
14754;SDS011;7469;50.906;6.952;2022-12-20T02:06:26;2.00;;;1.70;;
14754;SDS011;7469;50.906;6.952;2022-12-20T02:08:57;2.33;;;2.10;;
14754;SDS011;7469;50.906;6.952;2022-12-20T02:11:34;1.83;;;1.67;;
14754;SDS011;7469;50.906;6.952;2022-12-20T02:14:27;3.33;;;1.67;;
14754;SDS011;7469;50.906;6.952;2022-12-20T02:17:14;3.40;;;1.90;;
14754;SDS011;7469;50.906;6.952;2022-12-20T02:20:00;4.33;;;1.87;;
14754;SDS011;7469;50.906;6.952;2022-12-20T02:22:45;2.80;;;1.87;;
14754;SDS011;7469;50.906;6.952;2022-12-20T02:25:36;5.17;;;1.90;;
14754;SDS011;7469;50.906;6.952;2022-12-20T02:31:12;3.63;;;2.40;;
14754;SDS011;7469;50.906;6.952;2022-12-20T02:33:45;2.33;;;2.13;;
14754;SDS011;7469;50.906;6.952;2022-12-20T02:36:15;4.73;;;2.63;;
14754;SDS011;7469;50.906;6.952;2022-12-20T02:38:44;4.40;;;2.30;;
14754;SDS011;7469;50.906;6.952;2022-12-20T02:41:13;2.93;;;2.00;;
14754;SDS011;7469;50.906;6.952;2022-12-20T02:43:46;3.00;;;2.23;;
14754;SDS011;7469;50.906;6.952;2022-12-20T02:46:36;3.90;;;2.20;;
14754;SDS011;7469;50.906;6.952;2022-12-20T02:49:06;4.20;;;2.40;;
14754;SDS011;7469;50.906;6.952;2022-12-20T02:51:38;3.00;;;2.20;;
14754;SDS011;7469;50.906;6.952;2022-12-20T02:54:08;2.83;;;2.60;;
14754;SDS011;7469;50.906;6.952;2022-12-20T02:56:37;5.50;;;2.57;;
14754;SDS011;7469;50.906;6.952;2022-12-20T02:59:10;3.37;;;2.50;;
14754;SDS011;7469;50.906;6.952;2022-12-20T03:01:43;4.03;;;2.53;;
14754;SDS011;7469;50.906;6.952;2022-12-20T03:04:14;3.13;;;2.43;;
14754;SDS011;7469;50.906;6.952;2022-12-20T03:06:54;4.37;;;2.40;;
14754;SDS011;7469;50.906;6.952;2022-12-20T03:09:23;2.60;;;2.30;;
14754;SDS011;7469;50.906;6.952;2022-12-20T03:11:51;2.77;;;2.07;;
14754;SDS011;7469;50.906;6.952;2022-12-20T03:14:19;4.50;;;2.90;;
14754;SDS011;7469;50.906;6.952;2022-12-20T03:16:49;3.13;;;2.43;;
14754;SDS011;7469;50.906;6.952;2022-12-20T03:19:17;4.47;;;2.70;;
14754;SDS011;7469;50.906;6.952;2022-12-20T03:21:45;3.97;;;2.57;;
14754;SDS011;7469;50.906;6.952;2022-12-20T03:24:14;3.43;;;2.37;;
14754;SDS011;7469;50.906;6.952;2022-12-20T03:26:42;4.73;;;2.87;;
14754;SDS011;7469;50.906;6.952;2022-12-20T03:29:10;2.77;;;2.40;;
14754;SDS011;7469;50.906;6.952;2022-12-20T03:31:38;4.43;;;2.80;;
14754;SDS011;7469;50.906;6.952;2022-12-20T03:34:08;9.83;;;2.53;;
14754;SDS011;7469;50.906;6.952;2022-12-20T03:36:35;6.00;;;2.73;;
14754;SDS011;7469;50.906;6.952;2022-12-20T03:39:03;4.10;;;2.40;;
14754;SDS011;7469;50.906;6.952;2022-12-20T03:41:31;3.30;;;2.43;;
14754;SDS011;7469;50.906;6.952;2022-12-20T03:43:59;2.77;;;2.50;;
14754;SDS011;7469;50.906;6.952;2022-12-20T03:46:27;4.93;;;2.43;;
14754;SDS011;7469;50.906;6.952;2022-12-20T03:48:55;2.90;;;2.23;;
14754;SDS011;7469;50.906;6.952;2022-12-20T03:51:25;3.00;;;2.23;;
14754;SDS011;7469;50.906;6.952;2022-12-20T03:53:53;3.80;;;2.57;;
14754;SDS011;7469;50.906;6.952;2022-12-20T03:56:21;3.00;;;1.90;;
14754;SDS011;7469;50.906;6.952;2022-12-20T03:58:49;4.43;;;2.50;;
14754;SDS011;7469;50.906;6.952;2022-12-20T04:01:17;2.47;;;2.23;;
14754;SDS011;7469;50.906;6.952;2022-12-20T04:03:47;4.13;;;2.33;;
14754;SDS011;7469;50.906;6.952;2022-12-20T04:06:16;3.60;;;2.37;;
14754;SDS011;7469;50.906;6.952;2022-12-20T04:08:45;4.20;;;2.50;;
14754;SDS011;7469;50.906;6.952;2022-12-20T04:11:13;6.20;;;2.63;;
14754;SDS011;7469;50.906;6.952;2022-12-20T04:13:42;5.90;;;2.83;;
14754;SDS011;7469;50.906;6.952;2022-12-20T04:16:11;2.30;;;2.00;;
14754;SDS011;7469;50.906;6.952;2022-12-20T04:18:39;3.20;;;2.13;;
14754;SDS011;7469;50.906;6.952;2022-12-20T04:21:08;4.07;;;2.10;;
14754;SDS011;7469;50.906;6.952;2022-12-20T04:23:37;3.60;;;2.23;;
14754;SDS011;7469;50.906;6.952;2022-12-20T04:26:07;3.03;;;2.50;;
14754;SDS011;7469;50.906;6.952;2022-12-20T04:28:36;2.53;;;2.00;;
14754;SDS011;7469;50.906;6.952;2022-12-20T04:31:04;3.33;;;2.30;;
14754;SDS011;7469;50.906;6.952;2022-12-20T04:33:32;5.47;;;2.80;;
14754;SDS011;7469;50.906;6.952;2022-12-20T04:36:00;3.50;;;2.33;;
14754;SDS011;7469;50.906;6.952;2022-12-20T04:38:29;5.70;;;2.37;;
14754;SDS011;7469;50.906;6.952;2022-12-20T04:40:57;4.30;;;2.60;;
14754;SDS011;7469;50.906;6.952;2022-12-20T04:43:27;4.23;;;2.53;;
14754;SDS011;7469;50.906;6.952;2022-12-20T04:45:55;2.43;;;2.23;;
14754;SDS011;7469;50.906;6.952;2022-12-20T04:48:24;4.80;;;2.80;;
14754;SDS011;7469;50.906;6.952;2022-12-20T04:51:13;7.73;;;2.40;;
14754;SDS011;7469;50.906;6.952;2022-12-20T04:53:41;3.67;;;2.63;;
14754;SDS011;7469;50.906;6.952;2022-12-20T04:56:18;4.07;;;2.70;;
14754;SDS011;7469;50.906;6.952;2022-12-20T04:58:49;3.07;;;2.20;;
14754;SDS011;7469;50.906;6.952;2022-12-20T05:01:19;7.47;;;2.50;;
14754;SDS011;7469;50.906;6.952;2022-12-20T05:03:47;2.60;;;2.23;;
14754;SDS011;7469;50.906;6.952;2022-12-20T05:06:16;3.20;;;2.40;;
14754;SDS011;7469;50.906;6.952;2022-12-20T05:08:44;3.43;;;2.10;;
14754;SDS011;7469;50.906;6.952;2022-12-20T05:11:12;4.10;;;2.53;;
14754;SDS011;7469;50.906;6.952;2022-12-20T05:13:40;3.67;;;2.17;;
14754;SDS011;7469;50.906;6.952;2022-12-20T05:16:09;3.23;;;2.57;;
14754;SDS011;7469;50.906;6.952;2022-12-20T05:18:37;4.07;;;2.50;;
14754;SDS011;7469;50.906;6.952;2022-12-20T05:21:15;4.73;;;2.67;;
14754;SDS011;7469;50.906;6.952;2022-12-20T05:24:12;3.10;;;2.60;;
14754;SDS011;7469;50.906;6.952;2022-12-20T05:26:57;4.00;;;2.37;;
14754;SDS011;7469;50.906;6.952;2022-12-20T05:29:26;3.93;;;2.83;;
14754;SDS011;7469;50.906;6.952;2022-12-20T05:31:55;4.40;;;2.30;;
14754;SDS011;7469;50.906;6.952;2022-12-20T05:34:23;2.67;;;2.33;;
14754;SDS011;7469;50.906;6.952;2022-12-20T05:36:53;4.90;;;2.50;;
14754;SDS011;7469;50.906;6.952;2022-12-20T05:39:21;4.27;;;2.60;;
14754;SDS011;7469;50.906;6.952;2022-12-20T05:41:49;3.17;;;2.50;;
14754;SDS011;7469;50.906;6.952;2022-12-20T05:44:18;7.13;;;3.50;;
14754;SDS011;7469;50.906;6.952;2022-12-20T05:46:47;4.13;;;2.60;;
14754;SDS011;7469;50.906;6.952;2022-12-20T05:49:16;5.03;;;2.70;;
14754;SDS011;7469;50.906;6.952;2022-12-20T05:51:44;5.90;;;2.67;;
14754;SDS011;7469;50.906;6.952;2022-12-20T05:54:12;3.60;;;2.33;;
14754;SDS011;7469;50.906;6.952;2022-12-20T05:56:41;3.10;;;2.43;;
14754;SDS011;7469;50.906;6.952;2022-12-20T05:59:10;4.87;;;2.47;;
14754;SDS011;7469;50.906;6.952;2022-12-20T06:01:38;5.07;;;2.63;;
14754;SDS011;7469;50.906;6.952;2022-12-20T06:04:06;3.80;;;2.57;;
14754;SDS011;7469;50.906;6.952;2022-12-20T06:06:37;6.03;;;2.70;;
14754;SDS011;7469;50.906;6.952;2022-12-20T06:09:05;4.63;;;2.63;;
14754;SDS011;7469;50.906;6.952;2022-12-20T06:11:33;4.87;;;2.80;;
14754;SDS011;7469;50.906;6.952;2022-12-20T06:14:01;3.50;;;2.47;;
14754;SDS011;7469;50.906;6.952;2022-12-20T06:16:29;5.27;;;3.37;;
14754;SDS011;7469;50.906;6.952;2022-12-20T06:18:57;4.27;;;2.73;;
14754;SDS011;7469;50.906;6.952;2022-12-20T06:21:25;7.00;;;3.13;;
14754;SDS011;7469;50.906;6.952;2022-12-20T06:23:55;3.43;;;2.70;;
14754;SDS011;7469;50.906;6.952;2022-12-20T06:26:23;5.83;;;2.73;;
14754;SDS011;7469;50.906;6.952;2022-12-20T06:28:51;5.23;;;3.03;;
14754;SDS011;7469;50.906;6.952;2022-12-20T06:31:22;4.90;;;2.53;;
14754;SDS011;7469;50.906;6.952;2022-12-20T06:33:50;4.13;;;2.73;;
14754;SDS011;7469;50.906;6.952;2022-12-20T06:36:18;4.87;;;2.80;;
14754;SDS011;7469;50.906;6.952;2022-12-20T06:38:46;6.83;;;2.70;;
14754;SDS011;7469;50.906;6.952;2022-12-20T06:41:15;6.67;;;2.70;;
14754;SDS011;7469;50.906;6.952;2022-12-20T06:43:43;5.40;;;3.13;;
14754;SDS011;7469;50.906;6.952;2022-12-20T06:46:11;6.57;;;3.00;;
14754;SDS011;7469;50.906;6.952;2022-12-20T06:48:39;3.80;;;2.90;;
14754;SDS011;7469;50.906;6.952;2022-12-20T06:51:07;3.40;;;3.00;;
14754;SDS011;7469;50.906;6.952;2022-12-20T06:53:37;3.70;;;2.60;;
14754;SDS011;7469;50.906;6.952;2022-12-20T06:56:05;4.57;;;2.80;;
14754;SDS011;7469;50.906;6.952;2022-12-20T06:58:35;3.43;;;2.73;;
14754;SDS011;7469;50.906;6.952;2022-12-20T07:01:03;4.87;;;3.03;;
14754;SDS011;7469;50.906;6.952;2022-12-20T07:03:31;4.27;;;2.60;;
14754;SDS011;7469;50.906;6.952;2022-12-20T07:05:59;2.90;;;2.60;;
14754;SDS011;7469;50.906;6.952;2022-12-20T07:08:27;10.47;;;4.97;;
14754;SDS011;7469;50.906;6.952;2022-12-20T07:10:55;26.07;;;13.27;;
14754;SDS011;7469;50.906;6.952;2022-12-20T07:13:29;23.03;;;12.50;;
14754;SDS011;7469;50.906;6.952;2022-12-20T07:15:59;18.03;;;11.67;;
14754;SDS011;7469;50.906;6.952;2022-12-20T07:18:29;12.63;;;8.57;;
14754;SDS011;7469;50.906;6.952;2022-12-20T07:20:58;6.73;;;4.90;;
14754;SDS011;7469;50.906;6.952;2022-12-20T07:23:26;6.53;;;3.80;;
14754;SDS011;7469;50.906;6.952;2022-12-20T07:25:57;5.30;;;3.40;;
14754;SDS011;7469;50.906;6.952;2022-12-20T07:28:29;5.67;;;3.23;;
14754;SDS011;7469;50.906;6.952;2022-12-20T07:31:00;4.47;;;3.43;;
14754;SDS011;7469;50.906;6.952;2022-12-20T07:33:29;4.47;;;2.87;;
14754;SDS011;7469;50.906;6.952;2022-12-20T07:36:00;5.07;;;2.80;;
14754;SDS011;7469;50.906;6.952;2022-12-20T07:38:29;5.30;;;3.30;;
14754;SDS011;7469;50.906;6.952;2022-12-20T07:40:57;5.47;;;3.33;;
14754;SDS011;7469;50.906;6.952;2022-12-20T07:43:25;6.77;;;2.73;;
14754;SDS011;7469;50.906;6.952;2022-12-20T07:45:54;7.10;;;3.00;;
14754;SDS011;7469;50.906;6.952;2022-12-20T07:48:24;4.80;;;3.00;;
14754;SDS011;7469;50.906;6.952;2022-12-20T07:50:52;4.93;;;2.97;;
14754;SDS011;7469;50.906;6.952;2022-12-20T07:53:25;6.97;;;2.93;;
14754;SDS011;7469;50.906;6.952;2022-12-20T07:55:55;5.60;;;3.30;;
14754;SDS011;7469;50.906;6.952;2022-12-20T07:58:25;8.13;;;3.00;;
14754;SDS011;7469;50.906;6.952;2022-12-20T08:00:53;5.40;;;2.67;;
14754;SDS011;7469;50.906;6.952;2022-12-20T08:03:24;8.60;;;2.67;;
14754;SDS011;7469;50.906;6.952;2022-12-20T08:05:57;6.03;;;3.10;;
14754;SDS011;7469;50.906;6.952;2022-12-20T08:08:32;4.30;;;3.00;;
14754;SDS011;7469;50.906;6.952;2022-12-20T08:11:02;3.90;;;2.83;;
14754;SDS011;7469;50.906;6.952;2022-12-20T08:13:33;4.83;;;2.73;;
14754;SDS011;7469;50.906;6.952;2022-12-20T08:16:11;4.10;;;2.70;;
14754;SDS011;7469;50.906;6.952;2022-12-20T08:18:41;4.13;;;2.80;;
14754;SDS011;7469;50.906;6.952;2022-12-20T08:21:09;4.17;;;2.83;;
14754;SDS011;7469;50.906;6.952;2022-12-20T08:23:38;3.33;;;2.80;;
14754;SDS011;7469;50.906;6.952;2022-12-20T08:26:06;4.37;;;2.60;;
14754;SDS011;7469;50.906;6.952;2022-12-20T08:28:34;3.90;;;2.60;;
14754;SDS011;7469;50.906;6.952;2022-12-20T08:31:03;7.20;;;3.10;;
14754;SDS011;7469;50.906;6.952;2022-12-20T08:33:32;6.17;;;2.70;;
14754;SDS011;7469;50.906;6.952;2022-12-20T08:36:05;3.23;;;2.50;;
14754;SDS011;7469;50.906;6.952;2022-12-20T08:38:37;6.90;;;2.70;;
14754;SDS011;7469;50.906;6.952;2022-12-20T08:41:06;6.60;;;2.83;;
14754;SDS011;7469;50.906;6.952;2022-12-20T08:43:36;4.57;;;2.80;;
14754;SDS011;7469;50.906;6.952;2022-12-20T08:46:05;3.27;;;2.40;;
14754;SDS011;7469;50.906;6.952;2022-12-20T08:48:34;3.33;;;2.50;;
14754;SDS011;7469;50.906;6.952;2022-12-20T08:51:04;3.37;;;2.60;;
14754;SDS011;7469;50.906;6.952;2022-12-20T08:53:33;3.87;;;2.67;;
14754;SDS011;7469;50.906;6.952;2022-12-20T08:56:03;6.00;;;2.27;;
14754;SDS011;7469;50.906;6.952;2022-12-20T08:58:32;5.43;;;3.23;;
14754;SDS011;7469;50.906;6.952;2022-12-20T09:01:00;6.60;;;3.10;;
14754;SDS011;7469;50.906;6.952;2022-12-20T09:03:32;4.50;;;3.00;;
14754;SDS011;7469;50.906;6.952;2022-12-20T09:06:05;5.63;;;3.20;;
14754;SDS011;7469;50.906;6.952;2022-12-20T09:08:34;5.43;;;3.03;;
14754;SDS011;7469;50.906;6.952;2022-12-20T09:11:04;7.57;;;2.93;;
14754;SDS011;7469;50.906;6.952;2022-12-20T09:13:32;5.20;;;3.10;;
14754;SDS011;7469;50.906;6.952;2022-12-20T09:16:09;4.70;;;3.10;;
14754;SDS011;7469;50.906;6.952;2022-12-20T09:18:38;4.63;;;3.07;;
14754;SDS011;7469;50.906;6.952;2022-12-20T09:21:08;7.03;;;3.10;;
14754;SDS011;7469;50.906;6.952;2022-12-20T09:23:36;10.70;;;3.00;;
14754;SDS011;7469;50.906;6.952;2022-12-20T09:26:05;7.00;;;3.20;;
14754;SDS011;7469;50.906;6.952;2022-12-20T09:28:35;4.97;;;3.07;;
14754;SDS011;7469;50.906;6.952;2022-12-20T09:31:03;5.63;;;3.60;;
14754;SDS011;7469;50.906;6.952;2022-12-20T09:33:33;5.03;;;2.90;;
14754;SDS011;7469;50.906;6.952;2022-12-20T09:36:02;7.10;;;3.03;;
14754;SDS011;7469;50.906;6.952;2022-12-20T09:38:32;6.13;;;2.70;;
14754;SDS011;7469;50.906;6.952;2022-12-20T09:41:04;3.17;;;2.60;;
14754;SDS011;7469;50.906;6.952;2022-12-20T09:43:34;6.40;;;2.90;;
14754;SDS011;7469;50.906;6.952;2022-12-20T09:46:03;4.17;;;2.67;;
14754;SDS011;7469;50.906;6.952;2022-12-20T09:48:32;8.43;;;2.80;;
14754;SDS011;7469;50.906;6.952;2022-12-20T09:51:06;4.73;;;2.60;;
14754;SDS011;7469;50.906;6.952;2022-12-20T09:53:50;4.00;;;2.37;;
14754;SDS011;7469;50.906;6.952;2022-12-20T09:56:25;2.63;;;2.43;;
14754;SDS011;7469;50.906;6.952;2022-12-20T09:58:57;4.77;;;2.53;;
14754;SDS011;7469;50.906;6.952;2022-12-20T10:01:28;5.27;;;2.40;;
14754;SDS011;7469;50.906;6.952;2022-12-20T10:04:05;4.33;;;2.53;;
14754;SDS011;7469;50.906;6.952;2022-12-20T10:06:43;4.27;;;2.30;;
14754;SDS011;7469;50.906;6.952;2022-12-20T10:09:22;3.17;;;2.30;;
14754;SDS011;7469;50.906;6.952;2022-12-20T10:12:07;5.53;;;2.40;;
14754;SDS011;7469;50.906;6.952;2022-12-20T10:14:48;4.70;;;2.60;;
14754;SDS011;7469;50.906;6.952;2022-12-20T10:17:29;3.63;;;2.47;;
14754;SDS011;7469;50.906;6.952;2022-12-20T10:20:18;2.60;;;2.27;;
14754;SDS011;7469;50.906;6.952;2022-12-20T10:23:10;5.27;;;2.17;;
14754;SDS011;7469;50.906;6.952;2022-12-20T10:25:46;3.87;;;2.10;;
14754;SDS011;7469;50.906;6.952;2022-12-20T10:28:16;3.63;;;2.27;;
14754;SDS011;7469;50.906;6.952;2022-12-20T10:30:50;4.03;;;2.17;;
14754;SDS011;7469;50.906;6.952;2022-12-20T10:33:20;3.67;;;2.37;;
14754;SDS011;7469;50.906;6.952;2022-12-20T10:35:49;4.00;;;2.43;;
14754;SDS011;7469;50.906;6.952;2022-12-20T10:38:18;4.50;;;2.30;;
14754;SDS011;7469;50.906;6.952;2022-12-20T10:40:59;3.83;;;2.50;;
14754;SDS011;7469;50.906;6.952;2022-12-20T10:43:47;5.37;;;2.67;;
14754;SDS011;7469;50.906;6.952;2022-12-20T10:46:18;3.80;;;2.40;;
14754;SDS011;7469;50.906;6.952;2022-12-20T10:48:47;3.40;;;2.50;;
14754;SDS011;7469;50.906;6.952;2022-12-20T10:51:16;6.93;;;2.70;;
14754;SDS011;7469;50.906;6.952;2022-12-20T10:53:53;3.90;;;2.50;;
14754;SDS011;7469;50.906;6.952;2022-12-20T10:56:25;6.00;;;2.47;;
14754;SDS011;7469;50.906;6.952;2022-12-20T10:58:55;4.50;;;2.40;;
14754;SDS011;7469;50.906;6.952;2022-12-20T11:01:28;6.37;;;3.03;;
14754;SDS011;7469;50.906;6.952;2022-12-20T11:04:00;6.87;;;2.60;;
14754;SDS011;7469;50.906;6.952;2022-12-20T11:06:39;4.83;;;2.80;;
14754;SDS011;7469;50.906;6.952;2022-12-20T11:09:21;9.20;;;3.00;;
14754;SDS011;7469;50.906;6.952;2022-12-20T11:11:59;4.17;;;2.63;;
14754;SDS011;7469;50.906;6.952;2022-12-20T11:14:31;2.60;;;2.27;;
14754;SDS011;7469;50.906;6.952;2022-12-20T11:17:06;2.23;;;2.03;;
14754;SDS011;7469;50.906;6.952;2022-12-20T11:19:51;3.57;;;2.40;;
14754;SDS011;7469;50.906;6.952;2022-12-20T11:22:30;7.03;;;2.53;;
14754;SDS011;7469;50.906;6.952;2022-12-20T11:25:16;3.47;;;2.10;;
14754;SDS011;7469;50.906;6.952;2022-12-20T11:28:01;4.30;;;2.07;;
14754;SDS011;7469;50.906;6.952;2022-12-20T11:30:49;4.00;;;2.40;;
14754;SDS011;7469;50.906;6.952;2022-12-20T11:33:33;4.93;;;2.43;;
14754;SDS011;7469;50.906;6.952;2022-12-20T11:36:12;6.63;;;2.10;;
14754;SDS011;7469;50.906;6.952;2022-12-20T11:38:49;4.67;;;2.30;;
14754;SDS011;7469;50.906;6.952;2022-12-20T11:41:25;2.23;;;2.03;;
14754;SDS011;7469;50.906;6.952;2022-12-20T11:44:01;3.47;;;2.50;;
14754;SDS011;7469;50.906;6.952;2022-12-20T11:46:56;3.37;;;2.17;;
14754;SDS011;7469;50.906;6.952;2022-12-20T11:52:30;2.97;;;2.07;;
14754;SDS011;7469;50.906;6.952;2022-12-20T11:55:04;2.53;;;1.93;;
14754;SDS011;7469;50.906;6.952;2022-12-20T11:57:44;3.73;;;2.20;;
14754;SDS011;7469;50.906;6.952;2022-12-20T12:00:41;5.33;;;2.40;;
14754;SDS011;7469;50.906;6.952;2022-12-20T12:03:17;1.97;;;1.87;;
14754;SDS011;7469;50.906;6.952;2022-12-20T12:05:52;2.53;;;2.10;;
14754;SDS011;7469;50.906;6.952;2022-12-20T12:08:24;5.53;;;2.33;;
14754;SDS011;7469;50.906;6.952;2022-12-20T12:10:58;5.93;;;2.20;;
14754;SDS011;7469;50.906;6.952;2022-12-20T12:13:30;3.70;;;2.13;;
14754;SDS011;7469;50.906;6.952;2022-12-20T12:16:04;4.93;;;2.23;;
14754;SDS011;7469;50.906;6.952;2022-12-20T12:18:35;2.90;;;2.23;;
14754;SDS011;7469;50.906;6.952;2022-12-20T12:21:07;6.20;;;2.80;;
14754;SDS011;7469;50.906;6.952;2022-12-20T12:23:40;5.93;;;2.23;;
14754;SDS011;7469;50.906;6.952;2022-12-20T12:26:17;2.77;;;2.00;;
14754;SDS011;7469;50.906;6.952;2022-12-20T12:28:50;3.83;;;2.43;;
14754;SDS011;7469;50.906;6.952;2022-12-20T12:31:24;3.00;;;1.90;;
14754;SDS011;7469;50.906;6.952;2022-12-20T12:34:00;5.13;;;2.30;;
14754;SDS011;7469;50.906;6.952;2022-12-20T12:36:43;4.43;;;2.40;;
14754;SDS011;7469;50.906;6.952;2022-12-20T12:39:44;4.03;;;2.20;;
14754;SDS011;7469;50.906;6.952;2022-12-20T12:45:48;2.97;;;2.03;;
14754;SDS011;7469;50.906;6.952;2022-12-20T12:48:23;4.57;;;2.30;;
14754;SDS011;7469;50.906;6.952;2022-12-20T12:50:58;3.23;;;2.43;;
14754;SDS011;7469;50.906;6.952;2022-12-20T12:53:30;5.03;;;2.70;;
14754;SDS011;7469;50.906;6.952;2022-12-20T13:02:21;5.30;;;2.70;;
14754;SDS011;7469;50.906;6.952;2022-12-20T13:05:31;6.17;;;2.53;;
14754;SDS011;7469;50.906;6.952;2022-12-20T13:08:01;5.30;;;2.80;;
14754;SDS011;7469;50.906;6.952;2022-12-20T13:13:27;3.70;;;2.93;;
14754;SDS011;7469;50.906;6.952;2022-12-20T13:16:12;7.93;;;2.80;;
14754;SDS011;7469;50.906;6.952;2022-12-20T13:19:17;4.07;;;2.53;;
14754;SDS011;7469;50.906;6.952;2022-12-20T13:22:12;5.57;;;2.87;;
14754;SDS011;7469;50.906;6.952;2022-12-20T13:24:51;6.47;;;2.77;;
14754;SDS011;7469;50.906;6.952;2022-12-20T13:27:23;6.47;;;2.80;;
14754;SDS011;7469;50.906;6.952;2022-12-20T13:30:14;7.40;;;2.60;;
14754;SDS011;7469;50.906;6.952;2022-12-20T13:33:15;4.20;;;2.40;;
14754;SDS011;7469;50.906;6.952;2022-12-20T13:35:59;4.20;;;2.60;;
14754;SDS011;7469;50.906;6.952;2022-12-20T13:38:56;2.97;;;2.20;;
14754;SDS011;7469;50.906;6.952;2022-12-20T13:41:35;4.37;;;2.10;;
14754;SDS011;7469;50.906;6.952;2022-12-20T13:49:59;6.33;;;2.37;;
14754;SDS011;7469;50.906;6.952;2022-12-20T13:52:28;4.53;;;2.67;;
14754;SDS011;7469;50.906;6.952;2022-12-20T13:55:01;3.37;;;2.57;;
14754;SDS011;7469;50.906;6.952;2022-12-20T13:57:38;7.13;;;2.80;;
14754;SDS011;7469;50.906;6.952;2022-12-20T14:00:13;3.07;;;2.37;;
14754;SDS011;7469;50.906;6.952;2022-12-20T14:02:43;2.57;;;2.23;;
14754;SDS011;7469;50.906;6.952;2022-12-20T14:05:13;3.77;;;2.70;;
14754;SDS011;7469;50.906;6.952;2022-12-20T14:07:44;4.60;;;2.70;;
14754;SDS011;7469;50.906;6.952;2022-12-20T14:10:20;4.77;;;2.20;;
14754;SDS011;7469;50.906;6.952;2022-12-20T14:12:51;9.13;;;2.70;;
14754;SDS011;7469;50.906;6.952;2022-12-20T14:15:20;3.87;;;2.50;;
14754;SDS011;7469;50.906;6.952;2022-12-20T14:17:54;2.93;;;2.40;;
14754;SDS011;7469;50.906;6.952;2022-12-20T14:20:23;5.27;;;2.30;;
14754;SDS011;7469;50.906;6.952;2022-12-20T14:22:56;3.90;;;2.37;;
14754;SDS011;7469;50.906;6.952;2022-12-20T14:25:34;7.73;;;2.30;;
14754;SDS011;7469;50.906;6.952;2022-12-20T14:28:04;6.77;;;2.57;;
14754;SDS011;7469;50.906;6.952;2022-12-20T14:30:51;5.27;;;2.53;;
14754;SDS011;7469;50.906;6.952;2022-12-20T14:33:26;4.57;;;2.50;;
14754;SDS011;7469;50.906;6.952;2022-12-20T14:35:56;7.30;;;2.73;;
14754;SDS011;7469;50.906;6.952;2022-12-20T14:38:33;3.90;;;2.20;;
14754;SDS011;7469;50.906;6.952;2022-12-20T14:41:02;4.07;;;2.40;;
14754;SDS011;7469;50.906;6.952;2022-12-20T14:43:31;4.30;;;2.30;;
14754;SDS011;7469;50.906;6.952;2022-12-20T14:46:07;3.43;;;2.20;;
14754;SDS011;7469;50.906;6.952;2022-12-20T14:48:43;7.13;;;2.70;;
14754;SDS011;7469;50.906;6.952;2022-12-20T14:51:12;4.50;;;2.60;;
14754;SDS011;7469;50.906;6.952;2022-12-20T14:53:45;5.27;;;2.50;;
14754;SDS011;7469;50.906;6.952;2022-12-20T14:56:16;6.73;;;2.80;;
14754;SDS011;7469;50.906;6.952;2022-12-20T14:59:04;6.73;;;2.67;;
14754;SDS011;7469;50.906;6.952;2022-12-20T15:01:44;4.03;;;2.73;;
14754;SDS011;7469;50.906;6.952;2022-12-20T15:04:19;6.67;;;2.87;;
14754;SDS011;7469;50.906;6.952;2022-12-20T15:06:50;4.40;;;2.33;;
14754;SDS011;7469;50.906;6.952;2022-12-20T15:09:19;3.60;;;1.97;;
14754;SDS011;7469;50.906;6.952;2022-12-20T15:11:49;3.37;;;1.70;;
14754;SDS011;7469;50.906;6.952;2022-12-20T15:14:23;3.17;;;1.73;;
14754;SDS011;7469;50.906;6.952;2022-12-20T15:16:58;3.10;;;1.57;;
14754;SDS011;7469;50.906;6.952;2022-12-20T15:19:27;2.33;;;1.63;;
14754;SDS011;7469;50.906;6.952;2022-12-20T15:21:56;4.17;;;1.90;;
14754;SDS011;7469;50.906;6.952;2022-12-20T15:24:25;4.27;;;2.30;;
14754;SDS011;7469;50.906;6.952;2022-12-20T15:26:55;7.80;;;2.53;;
14754;SDS011;7469;50.906;6.952;2022-12-20T15:29:23;4.30;;;2.60;;
14754;SDS011;7469;50.906;6.952;2022-12-20T15:31:56;5.50;;;2.37;;
14754;SDS011;7469;50.906;6.952;2022-12-20T15:34:31;5.13;;;2.53;;
14754;SDS011;7469;50.906;6.952;2022-12-20T15:37:01;6.20;;;2.30;;
14754;SDS011;7469;50.906;6.952;2022-12-20T15:39:31;5.73;;;2.30;;
14754;SDS011;7469;50.906;6.952;2022-12-20T15:42:02;5.47;;;2.10;;
14754;SDS011;7469;50.906;6.952;2022-12-20T15:44:31;5.37;;;2.30;;
14754;SDS011;7469;50.906;6.952;2022-12-20T15:47:01;5.20;;;2.20;;
14754;SDS011;7469;50.906;6.952;2022-12-20T15:49:29;4.97;;;2.70;;
14754;SDS011;7469;50.906;6.952;2022-12-20T15:51:58;6.13;;;2.40;;
14754;SDS011;7469;50.906;6.952;2022-12-20T15:54:27;4.90;;;2.43;;
14754;SDS011;7469;50.906;6.952;2022-12-20T15:56:57;4.17;;;2.27;;